createdAt,value
2022-08-17T00:01:51.231Z,20.20
2022-08-17T00:04:20.925Z,20.20
2022-08-17T00:06:49.919Z,20.30
2022-08-17T00:09:19.481Z,20.30
2022-08-17T00:12:40.410Z,20.30
2022-08-17T00:14:37.426Z,20.30
2022-08-17T00:17:06.991Z,20.40
2022-08-17T00:19:34.858Z,20.40
2022-08-17T00:22:34.028Z,20.40
2022-08-17T00:24:54.600Z,20.50
2022-08-17T00:27:22.493Z,20.50
2022-08-17T00:29:50.320Z,20.60
2022-08-17T00:33:13.920Z,20.80
2022-08-17T00:35:10.104Z,21.00
2022-08-17T00:37:37.940Z,20.90
2022-08-17T00:40:07.246Z,21.10
2022-08-17T00:42:35.578Z,21.30
2022-08-17T00:45:04.864Z,21.40
2022-08-17T00:47:34.102Z,21.50
2022-08-17T00:50:02.028Z,21.60
2022-08-17T00:52:33.355Z,21.50
2022-08-17T00:55:02.440Z,21.50
2022-08-17T00:57:33.812Z,21.60
2022-08-17T01:00:07.426Z,21.60
2022-08-17T01:02:43.201Z,21.70
2022-08-17T01:05:15.052Z,21.90
2022-08-17T01:07:44.311Z,22.00
2022-08-17T01:11:00.252Z,22.10
2022-08-17T01:13:03.590Z,22.20
2022-08-17T01:15:32.121Z,22.20
2022-08-17T01:18:01.280Z,22.20
2022-08-17T01:20:29.542Z,22.20
2022-08-17T01:22:58.770Z,22.20
2022-08-17T01:25:26.878Z,22.20
2022-08-17T01:27:54.751Z,22.20
2022-08-17T01:30:56.962Z,22.30
2022-08-17T01:33:11.770Z,22.30
2022-08-17T01:35:40.207Z,22.30
2022-08-17T01:38:10.211Z,22.20
2022-08-17T01:40:40.967Z,22.20
2022-08-17T01:43:13.084Z,22.10
2022-08-17T01:45:44.760Z,22.10
2022-08-17T01:48:13.383Z,22.00
2022-08-17T01:50:43.193Z,22.00
2022-08-17T01:53:14.714Z,22.00
2022-08-17T01:55:46.848Z,22.10
2022-08-17T01:58:14.711Z,22.00
2022-08-17T02:00:46.592Z,22.00
2022-08-17T02:03:30.376Z,22.10
2022-08-17T02:05:58.399Z,22.00
2022-08-17T02:08:37.324Z,22.00
2022-08-17T02:11:11.308Z,21.90
2022-08-17T02:13:39.849Z,22.10
2022-08-17T02:16:07.670Z,22.00
2022-08-17T02:18:35.516Z,21.90
2022-08-17T02:21:03.475Z,21.90
2022-08-17T02:23:36.360Z,22.00
2022-08-17T02:26:04.258Z,22.00
2022-08-17T02:28:32.487Z,21.90
2022-08-17T02:31:05.621Z,22.00
2022-08-17T02:33:43.089Z,21.90
2022-08-17T02:36:12.320Z,21.90
2022-08-17T02:38:42.335Z,21.80
2022-08-17T02:41:12.621Z,21.70
2022-08-17T02:43:40.486Z,21.70
2022-08-17T02:46:08.318Z,21.80
2022-08-17T02:48:36.116Z,21.80
2022-08-17T02:51:04.007Z,21.80
2022-08-17T02:53:36.169Z,21.80
2022-08-17T02:56:05.811Z,21.80
2022-08-17T02:58:35.314Z,21.80
2022-08-17T03:01:04.618Z,21.80
2022-08-17T03:03:32.897Z,21.70
2022-08-17T03:06:00.762Z,21.70
2022-08-17T03:08:29.090Z,21.70
2022-08-17T03:10:57.242Z,21.70
2022-08-17T03:13:27.553Z,21.70
2022-08-17T03:15:55.450Z,21.70
2022-08-17T03:18:26.296Z,21.70
2022-08-17T03:20:55.624Z,21.70
2022-08-17T03:23:25.466Z,21.70
2022-08-17T03:25:54.852Z,21.60
2022-08-17T03:28:26.090Z,21.70
2022-08-17T03:30:54.358Z,21.60
2022-08-17T03:33:22.978Z,21.60
2022-08-17T03:35:51.040Z,21.60
2022-08-17T03:38:19.128Z,21.70
2022-08-17T03:40:58.625Z,21.70
2022-08-17T03:43:30.866Z,21.80
2022-08-17T03:46:34.581Z,21.80
2022-08-17T03:49:22.170Z,21.90
2022-08-17T03:52:07.723Z,21.90
2022-08-17T03:54:53.210Z,21.90
2022-08-17T03:57:21.045Z,21.80
2022-08-17T03:59:50.687Z,21.70
2022-08-17T04:02:22.289Z,21.60
2022-08-17T04:04:51.278Z,21.50
2022-08-17T04:07:20.225Z,21.40
2022-08-17T04:09:48.132Z,21.30
2022-08-17T04:12:17.291Z,21.20
2022-08-17T04:14:53.679Z,20.90
2022-08-17T04:17:27.038Z,20.60
2022-08-17T04:19:56.144Z,20.60
2022-08-17T04:22:31.291Z,20.50
2022-08-17T04:25:04.872Z,20.30
2022-08-17T04:27:32.731Z,20.00
2022-08-17T04:30:00.552Z,20.10
2022-08-17T04:33:05.269Z,19.80
2022-08-17T04:35:22.234Z,19.80
2022-08-17T04:37:50.537Z,19.70
2022-08-17T04:40:36.779Z,19.90
2022-08-17T04:43:07.413Z,19.80
2022-08-17T04:45:39.114Z,19.90
2022-08-17T04:48:08.659Z,19.80
2022-08-17T04:50:37.467Z,19.70
2022-08-17T04:53:05.354Z,19.70
2022-08-17T04:55:33.188Z,19.60
2022-08-17T04:58:01.006Z,19.60
2022-08-17T05:00:28.963Z,19.70
2022-08-17T05:02:57.579Z,19.70
2022-08-17T05:05:30.316Z,19.70
2022-08-17T05:08:02.209Z,19.80
2022-08-17T05:10:31.939Z,19.70
2022-08-17T05:13:00.931Z,19.60
2022-08-17T05:15:33.169Z,19.50
2022-08-17T05:18:04.472Z,19.40
2022-08-17T05:20:34.241Z,19.40
2022-08-17T05:23:07.027Z,19.40
2022-08-17T05:25:42.074Z,19.50
2022-08-17T05:28:16.775Z,19.50
2022-08-17T05:30:49.177Z,19.50
2022-08-17T05:33:20.004Z,19.60
2022-08-17T05:35:52.203Z,19.70
2022-08-17T05:38:22.476Z,19.60
2022-08-17T05:40:50.458Z,19.60
2022-08-17T05:43:21.179Z,19.60
2022-08-17T05:45:56.440Z,19.60
2022-08-17T05:48:35.569Z,19.60
2022-08-17T05:51:39.537Z,19.60
2022-08-17T05:54:25.844Z,19.70
2022-08-17T05:57:08.755Z,19.80
2022-08-17T05:59:52.573Z,19.80
2022-08-17T06:02:29.401Z,20.00
2022-08-17T06:05:11.410Z,20.00
2022-08-17T06:07:49.381Z,20.00
2022-08-17T06:10:27.789Z,20.00
2022-08-17T06:13:06.352Z,20.10
2022-08-17T06:15:42.440Z,20.10
2022-08-17T06:18:13.800Z,20.10
2022-08-17T06:20:49.702Z,20.20
2022-08-17T06:23:33.335Z,20.00
2022-08-17T06:26:05.691Z,19.80
2022-08-17T06:28:40.155Z,19.80
2022-08-17T06:31:16.477Z,19.80
2022-08-17T06:33:45.570Z,19.80
2022-08-17T06:36:28.713Z,19.80
2022-08-17T06:39:05.228Z,19.80
2022-08-17T06:41:42.918Z,19.90
2022-08-17T06:44:49.789Z,20.00
2022-08-17T06:47:13.478Z,20.00
2022-08-17T06:49:50.723Z,20.10
2022-08-17T06:52:45.900Z,20.20
2022-08-17T06:55:21.247Z,20.20
2022-08-17T06:57:52.407Z,20.10
2022-08-17T07:00:23.871Z,20.30
2022-08-17T07:02:56.526Z,20.40
2022-08-17T07:05:27.500Z,20.40
2022-08-17T07:08:03.833Z,20.50
2022-08-17T07:10:38.913Z,20.50
2022-08-17T07:13:26.372Z,20.60
2022-08-17T07:16:00.349Z,20.70
2022-08-17T07:18:32.985Z,20.70
2022-08-17T07:21:08.384Z,20.70
2022-08-17T07:23:49.735Z,20.90
2022-08-17T07:26:18.863Z,21.00
2022-08-17T07:28:46.720Z,21.00
2022-08-17T07:31:17.391Z,21.00
2022-08-17T07:34:01.503Z,21.10
2022-08-17T07:36:33.713Z,21.20
2022-08-17T07:39:03.028Z,21.20
2022-08-17T07:41:57.710Z,21.10
2022-08-17T07:44:28.020Z,21.10
2022-08-17T07:47:13.873Z,21.00
2022-08-17T07:49:46.018Z,21.10
2022-08-17T07:52:50.594Z,21.20
2022-08-17T07:55:27.670Z,21.50
2022-08-17T07:57:58.011Z,21.80
2022-08-17T08:00:32.693Z,22.00
2022-08-17T08:03:16.573Z,22.30
2022-08-17T08:05:54.642Z,22.30
2022-08-17T08:08:28.023Z,22.30
2022-08-17T08:11:03.180Z,22.20
2022-08-17T08:13:33.186Z,22.20
2022-08-17T08:16:25.194Z,22.40
2022-08-17T08:18:57.104Z,22.90
2022-08-17T08:21:36.253Z,23.50
2022-08-17T08:24:30.163Z,23.90
2022-08-17T08:27:08.004Z,24.80
2022-08-17T08:29:48.672Z,25.20
2022-08-17T08:32:23.032Z,25.50
2022-08-17T08:35:03.761Z,25.60
2022-08-17T08:37:44.017Z,25.90
2022-08-17T08:40:29.807Z,26.10
2022-08-17T08:43:10.623Z,26.40
2022-08-17T08:45:50.464Z,26.80
2022-08-17T08:48:56.329Z,26.50
2022-08-17T08:51:33.310Z,26.10
2022-08-17T08:54:11.444Z,25.50
2022-08-17T08:57:19.209Z,25.10
2022-08-17T08:59:41.801Z,24.70
2022-08-17T09:02:25.292Z,24.30
2022-08-17T09:05:19.310Z,24.20
2022-08-17T09:07:58.684Z,24.00
2022-08-17T09:10:30.726Z,23.80
2022-08-17T09:13:10.178Z,23.70
2022-08-17T09:15:42.705Z,23.50
2022-08-17T09:19:02.447Z,23.30
2022-08-17T09:21:11.108Z,23.20
2022-08-17T09:23:45.656Z,23.30
2022-08-17T09:26:18.041Z,23.10
2022-08-17T09:28:51.592Z,23.10
2022-08-17T09:31:23.960Z,23.00
2022-08-17T09:33:54.376Z,23.10
2022-08-17T09:36:29.212Z,23.10
2022-08-17T09:39:01.344Z,23.00
2022-08-17T09:41:39.008Z,22.90
2022-08-17T09:44:25.494Z,22.70
2022-08-17T09:46:59.833Z,22.60
2022-08-17T09:49:34.559Z,22.60
2022-08-17T09:52:08.555Z,22.30
2022-08-17T09:54:39.907Z,22.20
2022-08-17T09:57:31.751Z,22.00
2022-08-17T10:00:17.814Z,21.80
2022-08-17T10:03:16.227Z,21.60
2022-08-17T10:05:51.226Z,21.50
2022-08-17T10:08:32.029Z,21.50
2022-08-17T10:11:09.831Z,21.50
2022-08-17T10:13:52.816Z,21.60
2022-08-17T10:16:30.318Z,21.70
2022-08-17T10:19:10.794Z,22.00
2022-08-17T10:22:32.352Z,22.10
2022-08-17T10:25:22.525Z,22.00
2022-08-17T10:27:57.536Z,22.10
2022-08-17T10:30:27.837Z,22.10
2022-08-17T10:32:59.260Z,22.10
2022-08-17T10:35:36.212Z,22.10
2022-08-17T10:38:24.643Z,22.20
2022-08-17T10:40:57.270Z,22.20
2022-08-17T10:43:34.902Z,22.40
2022-08-17T10:46:30.466Z,22.50
2022-08-17T10:49:25.542Z,22.60
2022-08-17T10:51:55.358Z,22.90
2022-08-17T10:54:48.676Z,23.10
2022-08-17T10:57:41.950Z,23.30
2022-08-17T11:00:15.367Z,23.40
2022-08-17T11:02:50.611Z,23.60
2022-08-17T11:05:34.246Z,24.20
2022-08-17T11:08:27.638Z,24.90
2022-08-17T11:11:12.128Z,25.40
2022-08-17T11:13:48.391Z,25.60
2022-08-17T11:16:45.573Z,25.50
2022-08-17T11:19:39.231Z,25.40
2022-08-17T11:22:21.417Z,25.20
2022-08-17T11:24:51.420Z,25.00
2022-08-17T11:27:28.158Z,24.90
2022-08-17T11:30:02.311Z,24.80
2022-08-17T11:32:47.644Z,24.60
2022-08-17T11:35:34.691Z,24.60
2022-08-17T11:38:16.890Z,24.50
2022-08-17T11:41:06.779Z,24.50
2022-08-17T11:44:04.830Z,24.50
2022-08-17T11:47:01.352Z,24.70
2022-08-17T11:50:10.064Z,24.80
2022-08-17T11:52:41.292Z,25.10
2022-08-17T11:55:52.714Z,25.30
2022-08-17T11:58:39.347Z,25.70
2022-08-17T12:01:12.350Z,26.10
2022-08-17T12:03:55.352Z,26.30
2022-08-17T12:06:47.495Z,26.30
2022-08-17T12:09:20.132Z,26.50
2022-08-17T12:12:12.627Z,26.60
2022-08-17T12:17:40.218Z,26.80
2022-08-17T12:20:14.991Z,26.80
2022-08-17T12:22:53.344Z,26.90
2022-08-17T12:25:25.590Z,27.10
2022-08-17T12:28:05.623Z,27.20
2022-08-17T12:30:36.123Z,27.30
2022-08-17T12:33:12.576Z,27.40
2022-08-17T12:35:40.497Z,27.30
2022-08-17T12:38:32.435Z,27.40
2022-08-17T12:41:19.456Z,27.40
2022-08-17T12:43:56.815Z,27.50
2022-08-17T12:46:24.628Z,27.50
2022-08-17T12:48:59.850Z,27.60
2022-08-17T12:51:29.306Z,27.60
2022-08-17T12:53:57.634Z,27.60
2022-08-17T12:56:25.526Z,27.50
2022-08-17T12:58:55.542Z,27.60
2022-08-17T13:01:25.047Z,27.60
2022-08-17T13:03:59.683Z,27.70
2022-08-17T13:06:30.156Z,27.70
2022-08-17T13:08:58.128Z,27.70
2022-08-17T13:11:26.350Z,27.70
2022-08-17T13:13:56.160Z,27.80
2022-08-17T13:16:26.542Z,27.70
2022-08-17T13:19:06.728Z,27.60
2022-08-17T13:21:35.661Z,27.50
2022-08-17T13:24:07.534Z,27.50
2022-08-17T13:26:38.307Z,27.50
2022-08-17T13:29:08.064Z,27.50
2022-08-17T13:31:52.379Z,27.50
2022-08-17T13:35:11.752Z,27.50
2022-08-17T13:37:32.877Z,27.50
2022-08-17T13:40:03.272Z,27.40
2022-08-17T13:42:34.268Z,27.30
2022-08-17T13:45:50.695Z,27.30
2022-08-17T13:48:26.775Z,27.30
2022-08-17T13:51:20.725Z,27.20
2022-08-17T13:54:11.622Z,27.20
2022-08-17T13:56:47.685Z,27.10
2022-08-17T13:59:17.443Z,27.10
2022-08-17T14:02:05.970Z,27.00
2022-08-17T14:04:34.240Z,27.00
2022-08-17T14:07:23.740Z,26.90
2022-08-17T14:09:56.180Z,26.80
2022-08-17T14:12:27.577Z,26.70
2022-08-17T14:14:56.637Z,26.60
2022-08-17T14:17:24.641Z,26.60
2022-08-17T14:19:53.046Z,26.50
2022-08-17T14:22:27.332Z,26.50
2022-08-17T14:24:58.739Z,26.30
2022-08-17T14:27:28.105Z,26.20
2022-08-17T14:29:57.920Z,26.10
2022-08-17T14:32:28.901Z,26.00
2022-08-17T14:34:57.715Z,25.90
2022-08-17T14:37:29.116Z,25.80
2022-08-17T14:39:57.288Z,25.70
2022-08-17T14:42:26.323Z,25.60
2022-08-17T14:44:55.060Z,25.50
2022-08-17T14:47:23.084Z,25.40
2022-08-17T14:49:51.160Z,25.40
2022-08-17T14:52:21.875Z,25.30
2022-08-17T14:54:52.230Z,25.30
2022-08-17T14:57:33.243Z,25.20
2022-08-17T15:00:02.857Z,25.20
2022-08-17T15:02:31.314Z,25.10
2022-08-17T15:05:03.402Z,25.10
2022-08-17T15:07:31.746Z,25.10
2022-08-17T15:10:02.038Z,25.00
2022-08-17T15:12:34.299Z,24.90
2022-08-17T15:15:04.605Z,24.90
2022-08-17T15:17:44.538Z,24.90
2022-08-17T15:20:16.005Z,24.80
2022-08-17T15:22:45.790Z,24.70
2022-08-17T15:25:15.550Z,24.60
2022-08-17T15:27:43.945Z,24.60
2022-08-17T15:30:12.943Z,24.50
2022-08-17T15:32:50.756Z,24.40
2022-08-17T15:35:27.329Z,24.50
2022-08-17T15:37:57.117Z,24.50
2022-08-17T15:40:26.631Z,24.50
2022-08-17T15:42:54.679Z,24.70
2022-08-17T15:45:26.894Z,24.60
2022-08-17T15:47:54.924Z,24.10
2022-08-17T15:50:22.822Z,24.10
2022-08-17T15:52:57.685Z,24.00
2022-08-17T15:55:29.015Z,23.90
2022-08-17T15:57:56.873Z,23.60
2022-08-17T16:00:28.292Z,23.40
2022-08-17T16:03:16.011Z,23.30
2022-08-17T16:05:45.076Z,23.00
2022-08-17T16:08:20.181Z,22.50
2022-08-17T16:10:51.078Z,22.40
2022-08-17T16:13:19.630Z,22.20
2022-08-17T16:15:57.045Z,22.00
2022-08-17T16:18:27.228Z,22.00
2022-08-17T16:20:55.142Z,21.80
2022-08-17T16:23:23.386Z,21.60
2022-08-17T16:25:54.281Z,21.00
2022-08-17T16:28:35.585Z,20.60
2022-08-17T16:31:05.838Z,20.50
2022-08-17T16:33:37.641Z,20.40
2022-08-17T16:36:06.028Z,20.40
2022-08-17T16:38:33.929Z,20.70
2022-08-17T16:41:03.359Z,20.70
2022-08-17T16:43:31.185Z,20.90
2022-08-17T16:46:00.722Z,20.80
2022-08-17T16:48:29.654Z,20.90
2022-08-17T16:51:03.294Z,21.00
2022-08-17T16:53:32.422Z,21.30
2022-08-17T16:56:00.235Z,21.60
2022-08-17T16:58:30.116Z,21.60
2022-08-17T17:00:59.493Z,21.50
2022-08-17T17:03:30.022Z,21.50
2022-08-17T17:06:07.137Z,21.70
2022-08-17T17:08:43.647Z,21.70
2022-08-17T17:11:15.639Z,21.80
2022-08-17T17:13:50.503Z,21.70
2022-08-17T17:16:23.639Z,21.60
2022-08-17T17:19:04.556Z,21.60
2022-08-17T17:21:40.312Z,21.50
2022-08-17T17:24:13.946Z,21.40
2022-08-17T17:27:07.520Z,21.30
2022-08-17T17:29:50.594Z,21.30
2022-08-17T17:32:22.674Z,21.30
2022-08-17T17:34:54.963Z,21.30
2022-08-17T17:37:27.784Z,21.30
2022-08-17T17:40:00.850Z,21.30
2022-08-17T17:42:32.210Z,21.20
2022-08-17T17:45:08.116Z,21.20
2022-08-17T17:47:36.700Z,21.20
2022-08-17T17:50:07.148Z,21.20
2022-08-17T17:52:47.390Z,21.30
2022-08-17T17:55:29.632Z,21.40
2022-08-17T17:58:07.175Z,21.30
2022-08-17T18:00:41.219Z,21.20
2022-08-17T18:03:21.887Z,21.20
2022-08-17T18:06:17.323Z,21.00
2022-08-17T18:09:02.015Z,21.00
2022-08-17T18:12:08.986Z,20.90
2022-08-17T18:14:53.228Z,20.80
2022-08-17T18:17:22.392Z,20.80
2022-08-17T18:19:50.330Z,20.70
2022-08-17T18:22:20.795Z,20.80
2022-08-17T18:24:55.688Z,20.80
2022-08-17T18:27:30.257Z,20.80
2022-08-17T18:29:59.706Z,20.80
2022-08-17T18:32:35.537Z,20.80
2022-08-17T18:35:28.282Z,20.80
2022-08-17T18:38:20.031Z,20.70
2022-08-17T18:40:59.316Z,20.60
2022-08-17T18:43:44.299Z,20.60
2022-08-17T18:46:28.229Z,20.50
2022-08-17T18:49:00.435Z,20.40
2022-08-17T18:51:40.284Z,20.30
2022-08-17T18:54:20.649Z,20.30
2022-08-17T18:56:54.642Z,20.20
2022-08-17T18:59:33.895Z,20.20
2022-08-17T19:02:32.562Z,20.10
2022-08-17T19:05:13.345Z,20.10
2022-08-17T19:07:43.548Z,20.00
2022-08-17T19:10:20.780Z,20.00
2022-08-17T19:12:53.309Z,19.80
2022-08-17T19:15:28.396Z,19.90
2022-08-17T19:18:01.414Z,19.90
2022-08-17T19:20:36.410Z,19.90
2022-08-17T19:23:11.803Z,19.80
2022-08-17T19:25:45.002Z,19.80
2022-08-17T19:28:22.292Z,19.70
2022-08-17T19:30:51.910Z,19.70
2022-08-17T19:33:20.377Z,19.70
2022-08-17T19:35:59.813Z,19.70
2022-08-17T19:38:39.761Z,19.50
2022-08-17T19:41:17.365Z,19.40
2022-08-17T19:44:13.039Z,19.10
2022-08-17T19:46:48.555Z,19.00
2022-08-17T19:49:32.923Z,18.90
2022-08-17T19:52:11.060Z,18.90
2022-08-17T19:54:45.177Z,18.90
2022-08-17T19:57:19.271Z,19.00
2022-08-17T19:59:51.768Z,19.00
2022-08-17T20:02:34.516Z,19.00
2022-08-17T20:05:06.984Z,18.80
2022-08-17T20:07:52.702Z,18.80
2022-08-17T20:10:30.029Z,18.90
2022-08-17T20:13:03.985Z,18.90
2022-08-17T20:15:35.176Z,18.80
2022-08-17T20:18:09.999Z,18.60
2022-08-17T20:20:47.682Z,18.60
2022-08-17T20:23:31.839Z,18.50
2022-08-17T20:26:08.976Z,18.50
2022-08-17T20:28:38.975Z,18.40
2022-08-17T20:31:41.210Z,18.40
2022-08-17T20:34:36.709Z,18.40
2022-08-17T20:37:08.730Z,18.30
2022-08-17T20:39:42.880Z,18.30
2022-08-17T20:42:28.075Z,18.40
2022-08-17T20:44:58.547Z,18.20
2022-08-17T20:47:29.828Z,18.10
2022-08-17T20:50:03.014Z,18.10
2022-08-17T20:52:54.074Z,18.20
2022-08-17T20:55:53.221Z,18.10
2022-08-17T20:58:48.911Z,18.00
2022-08-17T21:01:24.272Z,18.00
2022-08-17T21:03:54.011Z,18.10
2022-08-17T21:06:24.816Z,18.20
2022-08-17T21:08:58.663Z,18.20
2022-08-17T21:12:04.454Z,18.00
2022-08-17T21:15:02.041Z,18.00
2022-08-17T21:17:41.835Z,18.00
2022-08-17T21:20:25.521Z,18.00
2022-08-17T21:23:05.169Z,18.00
2022-08-17T21:25:53.872Z,17.90
2022-08-17T21:28:34.234Z,17.70
2022-08-17T21:31:08.975Z,17.70
2022-08-17T21:33:38.913Z,17.60
2022-08-17T21:36:24.576Z,17.70
2022-08-17T21:38:59.249Z,17.70
2022-08-17T21:41:30.417Z,17.70
2022-08-17T21:44:07.022Z,17.80
2022-08-17T21:46:42.763Z,17.80
2022-08-17T21:49:17.857Z,17.70
2022-08-17T21:51:50.317Z,17.60
2022-08-17T21:54:31.629Z,17.60
2022-08-17T21:57:02.166Z,17.50
2022-08-17T21:59:35.562Z,17.60
2022-08-17T22:02:06.074Z,17.50
2022-08-17T22:04:35.444Z,17.60
2022-08-17T22:07:05.729Z,17.50
2022-08-17T22:09:41.321Z,17.60
2022-08-17T22:12:11.864Z,17.50
2022-08-17T22:14:52.284Z,17.60
2022-08-17T22:17:24.490Z,17.50
2022-08-17T22:19:54.474Z,17.50
2022-08-17T22:22:33.078Z,17.60
2022-08-17T22:25:02.920Z,17.70
2022-08-17T22:27:55.468Z,17.70
2022-08-17T22:30:34.358Z,17.60
2022-08-17T22:33:25.577Z,17.60
2022-08-17T22:36:22.556Z,17.70
2022-08-17T22:38:51.651Z,17.50
2022-08-17T22:41:36.626Z,17.50
2022-08-17T22:44:29.502Z,17.50
2022-08-17T22:47:11.546Z,17.50
2022-08-17T22:49:53.009Z,17.40
2022-08-17T22:52:59.234Z,17.40
2022-08-17T22:55:46.483Z,17.40
2022-08-17T22:58:35.894Z,17.50
2022-08-17T23:01:25.847Z,17.50
2022-08-17T23:03:55.447Z,17.50
2022-08-17T23:06:24.197Z,17.60
2022-08-17T23:08:56.291Z,17.50
2022-08-17T23:11:36.743Z,17.50
2022-08-17T23:14:14.455Z,17.40
2022-08-17T23:16:43.506Z,17.50
2022-08-17T23:19:12.236Z,17.50
2022-08-17T23:21:40.768Z,17.40
2022-08-17T23:24:10.570Z,17.50
2022-08-17T23:26:40.716Z,17.60
2022-08-17T23:29:09.337Z,17.70
2022-08-17T23:31:38.529Z,17.70
2022-08-17T23:34:10.519Z,17.50
2022-08-17T23:36:38.760Z,17.50
2022-08-17T23:39:07.289Z,17.40
2022-08-17T23:41:39.862Z,17.40
2022-08-17T23:44:08.316Z,17.40
2022-08-17T23:46:36.183Z,17.40
2022-08-17T23:49:04.058Z,17.40
2022-08-17T23:51:35.084Z,17.30
2022-08-17T23:54:08.123Z,17.30
2022-08-17T23:56:43.870Z,17.30
2022-08-17T23:59:12.866Z,17.20
